REBEL1 ZZZZ-EFKU

Flight info

Callsign REBEL1
Flight time N/A
Altitude 5000
Route LAIVO
Aircraft HAWK/M-SDGIRY/C

Departure

Time N/A
Airport ZZZZ

Arrival

Time 2026-04-17 18:50
Airport Kuopio Airport (EFKU)
Time Latitude Longitude Altitude Speed Heading
2026-04-17 18:38 62.95437 26.80000 371 ft 0 kts 242°
2026-04-17 18:39 62.95441 26.79955 372 ft 9 kts 304°
2026-04-17 18:39 62.95455 26.79899 372 ft 0 kts 246°
2026-04-17 18:39 62.95453 26.79895 372 ft 0 kts 206°
2026-04-17 18:40 62.95414 26.79954 372 ft 19 kts 135°
2026-04-17 18:40 62.95101 26.80652 371 ft 114 kts 135°
2026-04-17 18:40 62.94300 26.82385 402 ft 213 kts 134°
2026-04-17 18:40 62.93008 26.85250 727 ft 294 kts 133°
2026-04-17 18:41 62.91656 26.88458 2263 ft 256 kts 124°
2026-04-17 18:41 62.91088 26.91756 2695 ft 214 kts 96°
2026-04-17 18:41 62.90821 26.94725 3075 ft 184 kts 105°
2026-04-17 18:41 62.90350 26.97262 2968 ft 179 kts 104°
2026-04-17 18:42 62.89823 27.00414 2147 ft 275 kts 108°
2026-04-17 18:42 62.89219 27.03805 2627 ft 226 kts 108°
2026-04-17 18:42 62.88673 27.06878 2767 ft 204 kts 108°
2026-04-17 18:42 62.88167 27.09651 2897 ft 194 kts 109°
2026-04-17 18:43 62.87792 27.12444 3145 ft 194 kts 90°
2026-04-17 18:43 62.87726 27.15507 3513 ft 203 kts 89°
2026-04-17 18:43 62.87709 27.18725 3566 ft 225 kts 76°
2026-04-17 18:43 62.88343 27.22060 3728 ft 240 kts 61°
2026-04-17 18:44 62.89129 27.25311 4037 ft 247 kts 57°
2026-04-17 18:44 62.90020 27.28481 4218 ft 241 kts 57°
2026-04-17 18:44 62.90872 27.31507 4182 ft 225 kts 57°
2026-04-17 18:44 62.91734 27.34333 4238 ft 221 kts 54°
2026-04-17 18:45 62.92575 27.37138 4013 ft 225 kts 51°
2026-04-17 18:45 62.93432 27.40167 4301 ft 256 kts 69°
2026-04-17 18:45 62.94304 27.43714 4586 ft 251 kts 53°
2026-04-17 18:45 62.95288 27.46731 4467 ft 238 kts 52°
2026-04-17 18:46 62.96306 27.49546 4166 ft 233 kts 49°
2026-04-17 18:46 62.97331 27.52196 4038 ft 221 kts 46°
2026-04-17 18:46 62.98340 27.54631 3200 ft 229 kts 52°
2026-04-17 18:46 62.98915 27.58088 2204 ft 258 kts 78°
2026-04-17 18:47 62.99003 27.62013 1577 ft 263 kts 98°
2026-04-17 18:47 62.98581 27.65835 1363 ft 252 kts 109°
2026-04-17 18:47 62.97880 27.68977 1194 ft 217 kts 119°
2026-04-17 18:47 62.97085 27.71607 1258 ft 200 kts 124°
2026-04-17 18:48 62.96232 27.74087 1192 ft 207 kts 125°
2026-04-17 18:48 62.95393 27.76584 1283 ft 203 kts 125°
2026-04-17 18:48 62.94549 27.78887 1239 ft 191 kts 120°
2026-04-17 18:48 62.94137 27.81951 1200 ft 245 kts 90°
2026-04-17 18:49 62.94289 27.85433 1545 ft 213 kts 76°
2026-04-17 18:49 62.95266 27.86499 1314 ft 257 kts 314°
2026-04-17 18:49 62.96568 27.83954 1196 ft 228 kts 329°
2026-04-17 18:49 62.97806 27.82500 878 ft 180 kts 336°
2026-04-17 18:50 62.98890 27.81389 487 ft 170 kts 339°
2026-04-17 18:50 62.99900 27.80528 315 ft 143 kts 340°
2026-04-17 18:50 63.00561 27.79897 310 ft 51 kts 334°
2026-04-17 18:50 63.00701 27.79691 317 ft 12 kts 268°
2026-04-17 18:51 63.00671 27.79521 318 ft 13 kts 247°
2026-04-17 18:51 63.00639 27.79366 318 ft 10 kts 244°
2026-04-17 18:51 63.00598 27.79266 317 ft 8 kts 217°
2026-04-17 18:51 63.00551 27.79191 316 ft 8 kts 213°
2026-04-17 18:52 63.00500 27.79117 316 ft 8 kts 214°
2026-04-17 18:52 63.00448 27.79032 316 ft 11 kts 217°